sensor_id;sensor_type;location;lat;lon;timestamp;P1;durP1;ratioP1;P2;durP2;ratioP2
72235;SDS011;60146;52.498;13.462;2024-03-29T00:00:48;3.90;;;0.73;;
72235;SDS011;60146;52.498;13.462;2024-03-29T00:03:13;1.63;;;0.70;;
72235;SDS011;60146;52.498;13.462;2024-03-29T00:05:38;1.47;;;0.50;;
72235;SDS011;60146;52.498;13.462;2024-03-29T00:08:04;2.03;;;0.57;;
72235;SDS011;60146;52.498;13.462;2024-03-29T00:10:30;2.50;;;0.67;;
72235;SDS011;60146;52.498;13.462;2024-03-29T00:12:56;0.50;;;0.47;;
72235;SDS011;60146;52.498;13.462;2024-03-29T00:15:21;2.63;;;0.40;;
72235;SDS011;60146;52.498;13.462;2024-03-29T00:17:46;0.80;;;0.50;;
72235;SDS011;60146;52.498;13.462;2024-03-29T00:20:12;0.77;;;0.47;;
72235;SDS011;60146;52.498;13.462;2024-03-29T00:22:37;0.90;;;0.50;;
72235;SDS011;60146;52.498;13.462;2024-03-29T00:25:03;1.70;;;0.50;;
72235;SDS011;60146;52.498;13.462;2024-03-29T00:27:28;1.70;;;0.60;;
72235;SDS011;60146;52.498;13.462;2024-03-29T00:29:55;0.83;;;0.60;;
72235;SDS011;60146;52.498;13.462;2024-03-29T00:32:20;1.37;;;0.70;;
72235;SDS011;60146;52.498;13.462;2024-03-29T00:34:47;2.77;;;0.90;;
72235;SDS011;60146;52.498;13.462;2024-03-29T00:37:14;3.23;;;0.50;;
72235;SDS011;60146;52.498;13.462;2024-03-29T00:39:40;1.10;;;0.40;;
72235;SDS011;60146;52.498;13.462;2024-03-29T00:42:05;3.37;;;0.60;;
72235;SDS011;60146;52.498;13.462;2024-03-29T00:44:33;1.30;;;0.50;;
72235;SDS011;60146;52.498;13.462;2024-03-29T00:47:00;2.73;;;0.30;;
72235;SDS011;60146;52.498;13.462;2024-03-29T00:49:26;1.27;;;0.40;;
72235;SDS011;60146;52.498;13.462;2024-03-29T00:51:51;1.93;;;0.40;;
72235;SDS011;60146;52.498;13.462;2024-03-29T00:54:16;2.47;;;0.37;;
72235;SDS011;60146;52.498;13.462;2024-03-29T00:56:43;2.70;;;0.33;;
72235;SDS011;60146;52.498;13.462;2024-03-29T00:59:09;1.80;;;0.53;;
72235;SDS011;60146;52.498;13.462;2024-03-29T01:01:34;2.20;;;0.43;;
72235;SDS011;60146;52.498;13.462;2024-03-29T01:04:00;0.80;;;0.50;;
72235;SDS011;60146;52.498;13.462;2024-03-29T01:06:25;1.70;;;0.40;;
72235;SDS011;60146;52.498;13.462;2024-03-29T01:08:50;1.17;;;0.40;;
72235;SDS011;60146;52.498;13.462;2024-03-29T01:11:16;0.30;;;0.30;;
72235;SDS011;60146;52.498;13.462;2024-03-29T01:13:41;2.77;;;0.70;;
72235;SDS011;60146;52.498;13.462;2024-03-29T01:16:07;3.37;;;0.40;;
72235;SDS011;60146;52.498;13.462;2024-03-29T01:18:32;1.20;;;0.30;;
72235;SDS011;60146;52.498;13.462;2024-03-29T01:20:58;2.10;;;0.60;;
72235;SDS011;60146;52.498;13.462;2024-03-29T01:23:24;1.37;;;0.60;;
72235;SDS011;60146;52.498;13.462;2024-03-29T01:25:49;1.90;;;0.50;;
72235;SDS011;60146;52.498;13.462;2024-03-29T01:28:15;0.60;;;0.40;;
72235;SDS011;60146;52.498;13.462;2024-03-29T01:30:40;1.40;;;0.40;;
72235;SDS011;60146;52.498;13.462;2024-03-29T01:33:06;0.57;;;0.40;;
72235;SDS011;60146;52.498;13.462;2024-03-29T01:35:31;0.90;;;0.63;;
72235;SDS011;60146;52.498;13.462;2024-03-29T01:37:56;1.50;;;0.47;;
72235;SDS011;60146;52.498;13.462;2024-03-29T01:40:22;0.93;;;0.60;;
72235;SDS011;60146;52.498;13.462;2024-03-29T01:42:47;1.17;;;0.70;;
72235;SDS011;60146;52.498;13.462;2024-03-29T01:45:12;1.00;;;0.57;;
72235;SDS011;60146;52.498;13.462;2024-03-29T01:47:38;1.70;;;0.50;;
72235;SDS011;60146;52.498;13.462;2024-03-29T01:50:03;3.80;;;0.70;;
72235;SDS011;60146;52.498;13.462;2024-03-29T01:52:29;3.63;;;0.77;;
72235;SDS011;60146;52.498;13.462;2024-03-29T01:54:55;1.40;;;0.70;;
72235;SDS011;60146;52.498;13.462;2024-03-29T01:57:21;2.47;;;0.90;;
72235;SDS011;60146;52.498;13.462;2024-03-29T01:59:47;2.93;;;1.13;;
72235;SDS011;60146;52.498;13.462;2024-03-29T02:02:13;1.13;;;0.70;;
72235;SDS011;60146;52.498;13.462;2024-03-29T02:04:38;1.43;;;0.80;;
72235;SDS011;60146;52.498;13.462;2024-03-29T02:07:04;0.87;;;0.77;;
72235;SDS011;60146;52.498;13.462;2024-03-29T02:09:29;4.57;;;0.97;;
72235;SDS011;60146;52.498;13.462;2024-03-29T02:11:55;4.47;;;1.00;;
72235;SDS011;60146;52.498;13.462;2024-03-29T02:14:20;1.67;;;0.73;;
72235;SDS011;60146;52.498;13.462;2024-03-29T02:16:46;2.20;;;0.90;;
72235;SDS011;60146;52.498;13.462;2024-03-29T02:19:11;2.13;;;0.90;;
72235;SDS011;60146;52.498;13.462;2024-03-29T02:21:37;2.33;;;1.00;;
72235;SDS011;60146;52.498;13.462;2024-03-29T02:24:07;0.82;;;0.70;;
72235;SDS011;60146;52.498;13.462;2024-03-29T02:26:33;1.43;;;0.80;;
72235;SDS011;60146;52.498;13.462;2024-03-29T02:29:01;1.37;;;0.90;;
72235;SDS011;60146;52.498;13.462;2024-03-29T02:31:28;2.33;;;0.97;;
72235;SDS011;60146;52.498;13.462;2024-03-29T02:33:53;2.00;;;1.03;;
72235;SDS011;60146;52.498;13.462;2024-03-29T02:36:19;2.80;;;1.03;;
72235;SDS011;60146;52.498;13.462;2024-03-29T02:38:44;1.43;;;0.90;;
72235;SDS011;60146;52.498;13.462;2024-03-29T02:41:10;2.27;;;1.00;;
72235;SDS011;60146;52.498;13.462;2024-03-29T02:43:35;2.23;;;0.90;;
72235;SDS011;60146;52.498;13.462;2024-03-29T02:46:00;3.10;;;1.20;;
72235;SDS011;60146;52.498;13.462;2024-03-29T02:48:26;1.43;;;1.00;;
72235;SDS011;60146;52.498;13.462;2024-03-29T02:50:51;2.20;;;0.90;;
72235;SDS011;60146;52.498;13.462;2024-03-29T02:53:16;1.30;;;0.90;;
72235;SDS011;60146;52.498;13.462;2024-03-29T02:55:41;1.87;;;1.10;;
72235;SDS011;60146;52.498;13.462;2024-03-29T02:58:07;2.03;;;1.13;;
72235;SDS011;60146;52.498;13.462;2024-03-29T03:00:33;1.80;;;1.00;;
72235;SDS011;60146;52.498;13.462;2024-03-29T03:02:58;1.30;;;0.80;;
72235;SDS011;60146;52.498;13.462;2024-03-29T03:05:24;2.70;;;1.00;;
72235;SDS011;60146;52.498;13.462;2024-03-29T03:07:49;4.47;;;1.50;;
72235;SDS011;60146;52.498;13.462;2024-03-29T03:10:33;1.93;;;1.20;;
72235;SDS011;60146;52.498;13.462;2024-03-29T03:13:17;1.30;;;0.87;;
72235;SDS011;60146;52.498;13.462;2024-03-29T03:15:43;2.13;;;1.10;;
72235;SDS011;60146;52.498;13.462;2024-03-29T03:18:08;2.33;;;1.30;;
72235;SDS011;60146;52.498;13.462;2024-03-29T03:20:33;2.27;;;1.20;;
72235;SDS011;60146;52.498;13.462;2024-03-29T03:22:59;2.53;;;1.17;;
72235;SDS011;60146;52.498;13.462;2024-03-29T03:25:26;3.20;;;1.30;;
72235;SDS011;60146;52.498;13.462;2024-03-29T03:27:52;3.80;;;1.43;;
72235;SDS011;60146;52.498;13.462;2024-03-29T03:30:18;3.87;;;1.20;;
72235;SDS011;60146;52.498;13.462;2024-03-29T03:32:43;2.70;;;1.40;;
72235;SDS011;60146;52.498;13.462;2024-03-29T03:35:09;1.70;;;1.20;;
72235;SDS011;60146;52.498;13.462;2024-03-29T03:37:34;2.57;;;1.30;;
72235;SDS011;60146;52.498;13.462;2024-03-29T03:40:00;2.60;;;1.13;;
72235;SDS011;60146;52.498;13.462;2024-03-29T03:42:25;2.53;;;1.33;;
72235;SDS011;60146;52.498;13.462;2024-03-29T03:44:50;3.07;;;1.20;;
72235;SDS011;60146;52.498;13.462;2024-03-29T03:47:16;2.53;;;1.43;;
72235;SDS011;60146;52.498;13.462;2024-03-29T03:49:41;3.53;;;1.20;;
72235;SDS011;60146;52.498;13.462;2024-03-29T03:52:07;1.93;;;1.13;;
72235;SDS011;60146;52.498;13.462;2024-03-29T03:54:32;2.50;;;1.40;;
72235;SDS011;60146;52.498;13.462;2024-03-29T03:56:57;2.53;;;1.17;;
72235;SDS011;60146;52.498;13.462;2024-03-29T03:59:23;5.03;;;1.90;;
72235;SDS011;60146;52.498;13.462;2024-03-29T04:01:48;2.13;;;1.07;;
72235;SDS011;60146;52.498;13.462;2024-03-29T04:04:16;2.83;;;1.10;;
72235;SDS011;60146;52.498;13.462;2024-03-29T04:06:42;2.17;;;1.03;;
72235;SDS011;60146;52.498;13.462;2024-03-29T04:09:07;2.30;;;1.20;;
72235;SDS011;60146;52.498;13.462;2024-03-29T04:11:33;1.63;;;1.10;;
72235;SDS011;60146;52.498;13.462;2024-03-29T04:13:59;3.43;;;1.00;;
72235;SDS011;60146;52.498;13.462;2024-03-29T04:16:24;3.73;;;0.90;;
72235;SDS011;60146;52.498;13.462;2024-03-29T04:18:49;1.40;;;1.00;;
72235;SDS011;60146;52.498;13.462;2024-03-29T04:21:15;2.27;;;0.90;;
72235;SDS011;60146;52.498;13.462;2024-03-29T04:23:40;3.23;;;1.00;;
72235;SDS011;60146;52.498;13.462;2024-03-29T04:26:05;1.90;;;1.10;;
72235;SDS011;60146;52.498;13.462;2024-03-29T04:28:31;3.93;;;0.90;;
72235;SDS011;60146;52.498;13.462;2024-03-29T04:30:57;2.20;;;0.90;;
72235;SDS011;60146;52.498;13.462;2024-03-29T04:33:24;1.77;;;1.00;;
72235;SDS011;60146;52.498;13.462;2024-03-29T04:38:22;4.90;;;1.30;;
72235;SDS011;60146;52.498;13.462;2024-03-29T04:40:48;7.97;;;1.90;;
72235;SDS011;60146;52.498;13.462;2024-03-29T04:43:15;5.33;;;1.10;;
72235;SDS011;60146;52.498;13.462;2024-03-29T04:45:41;6.07;;;1.60;;
72235;SDS011;60146;52.498;13.462;2024-03-29T04:48:07;7.90;;;1.80;;
72235;SDS011;60146;52.498;13.462;2024-03-29T04:50:33;7.53;;;1.83;;
72235;SDS011;60146;52.498;13.462;2024-03-29T04:52:59;10.13;;;2.53;;
72235;SDS011;60146;52.498;13.462;2024-03-29T04:55:24;5.13;;;1.50;;
72235;SDS011;60146;52.498;13.462;2024-03-29T04:57:49;5.50;;;1.70;;
72235;SDS011;60146;52.498;13.462;2024-03-29T05:00:15;3.80;;;1.57;;
72235;SDS011;60146;52.498;13.462;2024-03-29T05:02:40;5.40;;;1.70;;
72235;SDS011;60146;52.498;13.462;2024-03-29T05:05:06;5.53;;;1.33;;
72235;SDS011;60146;52.498;13.462;2024-03-29T05:07:31;5.17;;;1.30;;
72235;SDS011;60146;52.498;13.462;2024-03-29T05:09:56;5.50;;;1.60;;
72235;SDS011;60146;52.498;13.462;2024-03-29T05:12:22;4.60;;;1.30;;
72235;SDS011;60146;52.498;13.462;2024-03-29T05:14:47;5.40;;;1.60;;
72235;SDS011;60146;52.498;13.462;2024-03-29T05:17:14;3.47;;;1.20;;
72235;SDS011;60146;52.498;13.462;2024-03-29T05:19:40;4.00;;;1.20;;
72235;SDS011;60146;52.498;13.462;2024-03-29T05:22:08;3.30;;;1.00;;
72235;SDS011;60146;52.498;13.462;2024-03-29T05:24:34;6.07;;;1.40;;
72235;SDS011;60146;52.498;13.462;2024-03-29T05:27:00;2.03;;;0.90;;
72235;SDS011;60146;52.498;13.462;2024-03-29T05:29:26;2.10;;;1.00;;
72235;SDS011;60146;52.498;13.462;2024-03-29T05:31:51;1.37;;;0.93;;
72235;SDS011;60146;52.498;13.462;2024-03-29T05:34:16;6.20;;;0.93;;
72235;SDS011;60146;52.498;13.462;2024-03-29T05:36:42;3.00;;;1.10;;
72235;SDS011;60146;52.498;13.462;2024-03-29T05:39:09;2.53;;;1.10;;
72235;SDS011;60146;52.498;13.462;2024-03-29T05:41:34;2.37;;;0.80;;
72235;SDS011;60146;52.498;13.462;2024-03-29T05:44:00;4.77;;;1.07;;
72235;SDS011;60146;52.498;13.462;2024-03-29T05:46:25;3.07;;;0.80;;
72235;SDS011;60146;52.498;13.462;2024-03-29T05:48:50;2.37;;;0.90;;
72235;SDS011;60146;52.498;13.462;2024-03-29T05:51:16;2.20;;;0.93;;
72235;SDS011;60146;52.498;13.462;2024-03-29T05:53:41;2.73;;;1.00;;
72235;SDS011;60146;52.498;13.462;2024-03-29T05:56:06;1.87;;;0.70;;
72235;SDS011;60146;52.498;13.462;2024-03-29T05:58:35;1.47;;;0.90;;
72235;SDS011;60146;52.498;13.462;2024-03-29T06:01:01;3.30;;;0.80;;
72235;SDS011;60146;52.498;13.462;2024-03-29T06:03:26;2.67;;;0.80;;
72235;SDS011;60146;52.498;13.462;2024-03-29T06:05:53;1.93;;;0.83;;
72235;SDS011;60146;52.498;13.462;2024-03-29T06:08:18;3.50;;;1.00;;
72235;SDS011;60146;52.498;13.462;2024-03-29T06:10:46;2.43;;;1.00;;
72235;SDS011;60146;52.498;13.462;2024-03-29T06:13:11;1.47;;;0.70;;
72235;SDS011;60146;52.498;13.462;2024-03-29T06:15:52;1.87;;;0.83;;
72235;SDS011;60146;52.498;13.462;2024-03-29T06:18:53;3.27;;;0.97;;
72235;SDS011;60146;52.498;13.462;2024-03-29T06:21:19;4.70;;;1.20;;
72235;SDS011;60146;52.498;13.462;2024-03-29T06:23:44;2.20;;;0.93;;
72235;SDS011;60146;52.498;13.462;2024-03-29T06:26:10;3.80;;;1.13;;
72235;SDS011;60146;52.498;13.462;2024-03-29T06:28:35;3.47;;;1.20;;
72235;SDS011;60146;52.498;13.462;2024-03-29T06:31:00;1.53;;;0.73;;
72235;SDS011;60146;52.498;13.462;2024-03-29T06:33:27;1.67;;;0.80;;
72235;SDS011;60146;52.498;13.462;2024-03-29T06:35:53;3.40;;;1.00;;
72235;SDS011;60146;52.498;13.462;2024-03-29T06:38:19;1.07;;;0.70;;
72235;SDS011;60146;52.498;13.462;2024-03-29T06:40:45;1.80;;;0.70;;
72235;SDS011;60146;52.498;13.462;2024-03-29T06:43:11;6.07;;;1.30;;
72235;SDS011;60146;52.498;13.462;2024-03-29T06:45:39;1.93;;;1.00;;
72235;SDS011;60146;52.498;13.462;2024-03-29T06:48:07;1.77;;;0.77;;
72235;SDS011;60146;52.498;13.462;2024-03-29T06:50:33;4.33;;;1.10;;
72235;SDS011;60146;52.498;13.462;2024-03-29T06:52:58;4.10;;;1.10;;
72235;SDS011;60146;52.498;13.462;2024-03-29T06:55:23;1.43;;;0.80;;
72235;SDS011;60146;52.498;13.462;2024-03-29T06:57:49;2.47;;;0.90;;
72235;SDS011;60146;52.498;13.462;2024-03-29T07:00:14;3.30;;;0.80;;
72235;SDS011;60146;52.498;13.462;2024-03-29T07:02:40;2.70;;;0.80;;
72235;SDS011;60146;52.498;13.462;2024-03-29T07:05:05;1.27;;;0.80;;
72235;SDS011;60146;52.498;13.462;2024-03-29T07:07:32;1.43;;;0.60;;
72235;SDS011;60146;52.498;13.462;2024-03-29T07:09:58;3.43;;;0.60;;
72235;SDS011;60146;52.498;13.462;2024-03-29T07:12:23;3.17;;;0.70;;
72235;SDS011;60146;52.498;13.462;2024-03-29T07:14:48;2.97;;;0.80;;
72235;SDS011;60146;52.498;13.462;2024-03-29T07:17:14;3.63;;;0.80;;
72235;SDS011;60146;52.498;13.462;2024-03-29T07:19:39;1.23;;;0.50;;
72235;SDS011;60146;52.498;13.462;2024-03-29T07:22:05;5.30;;;0.90;;
72235;SDS011;60146;52.498;13.462;2024-03-29T07:24:30;5.57;;;1.17;;
72235;SDS011;60146;52.498;13.462;2024-03-29T07:26:55;6.23;;;0.70;;
72235;SDS011;60146;52.498;13.462;2024-03-29T07:29:21;2.00;;;0.60;;
72235;SDS011;60146;52.498;13.462;2024-03-29T07:31:46;0.83;;;0.57;;
72235;SDS011;60146;52.498;13.462;2024-03-29T07:34:11;2.83;;;0.80;;
72235;SDS011;60146;52.498;13.462;2024-03-29T07:36:37;0.97;;;0.60;;
72235;SDS011;60146;52.498;13.462;2024-03-29T07:39:04;1.37;;;0.60;;
72235;SDS011;60146;52.498;13.462;2024-03-29T07:41:29;4.53;;;1.07;;
72235;SDS011;60146;52.498;13.462;2024-03-29T07:43:55;3.23;;;0.50;;
72235;SDS011;60146;52.498;13.462;2024-03-29T07:46:27;2.80;;;1.00;;
72235;SDS011;60146;52.498;13.462;2024-03-29T07:48:53;2.97;;;0.80;;
72235;SDS011;60146;52.498;13.462;2024-03-29T07:51:18;2.93;;;0.63;;
72235;SDS011;60146;52.498;13.462;2024-03-29T07:53:44;1.70;;;0.70;;
72235;SDS011;60146;52.498;13.462;2024-03-29T07:56:09;1.90;;;0.70;;
72235;SDS011;60146;52.498;13.462;2024-03-29T07:58:35;2.00;;;0.63;;
72235;SDS011;60146;52.498;13.462;2024-03-29T08:01:00;1.27;;;0.50;;
72235;SDS011;60146;52.498;13.462;2024-03-29T08:03:26;2.07;;;0.50;;
72235;SDS011;60146;52.498;13.462;2024-03-29T08:05:58;2.53;;;0.73;;
72235;SDS011;60146;52.498;13.462;2024-03-29T08:08:24;3.57;;;0.57;;
72235;SDS011;60146;52.498;13.462;2024-03-29T08:10:52;2.57;;;0.70;;
72235;SDS011;60146;52.498;13.462;2024-03-29T08:13:18;1.17;;;0.43;;
72235;SDS011;60146;52.498;13.462;2024-03-29T08:15:45;2.57;;;0.70;;
72235;SDS011;60146;52.498;13.462;2024-03-29T08:18:11;0.83;;;0.50;;
72235;SDS011;60146;52.498;13.462;2024-03-29T08:20:37;1.63;;;0.50;;
72235;SDS011;60146;52.498;13.462;2024-03-29T08:23:03;1.77;;;0.57;;
72235;SDS011;60146;52.498;13.462;2024-03-29T08:25:29;1.07;;;0.20;;
72235;SDS011;60146;52.498;13.462;2024-03-29T08:27:54;5.13;;;0.80;;
72235;SDS011;60146;52.498;13.462;2024-03-29T08:30:24;1.47;;;0.60;;
72235;SDS011;60146;52.498;13.462;2024-03-29T08:32:50;0.67;;;0.40;;
72235;SDS011;60146;52.498;13.462;2024-03-29T08:35:17;2.70;;;0.63;;
72235;SDS011;60146;52.498;13.462;2024-03-29T08:37:43;1.93;;;0.67;;
72235;SDS011;60146;52.498;13.462;2024-03-29T08:40:08;6.60;;;2.20;;
72235;SDS011;60146;52.498;13.462;2024-03-29T08:42:34;2.53;;;0.63;;
72235;SDS011;60146;52.498;13.462;2024-03-29T08:45:02;4.00;;;0.90;;
72235;SDS011;60146;52.498;13.462;2024-03-29T08:47:28;1.00;;;0.50;;
72235;SDS011;60146;52.498;13.462;2024-03-29T08:49:54;4.37;;;1.03;;
72235;SDS011;60146;52.498;13.462;2024-03-29T08:52:19;2.17;;;0.70;;
72235;SDS011;60146;52.498;13.462;2024-03-29T08:54:45;2.17;;;0.60;;
72235;SDS011;60146;52.498;13.462;2024-03-29T08:57:10;1.30;;;0.67;;
72235;SDS011;60146;52.498;13.462;2024-03-29T08:59:35;2.60;;;0.80;;
72235;SDS011;60146;52.498;13.462;2024-03-29T09:02:04;2.90;;;0.80;;
72235;SDS011;60146;52.498;13.462;2024-03-29T09:04:31;2.10;;;0.80;;
72235;SDS011;60146;52.498;13.462;2024-03-29T09:06:59;1.40;;;0.60;;
72235;SDS011;60146;52.498;13.462;2024-03-29T09:09:25;2.87;;;1.03;;
72235;SDS011;60146;52.498;13.462;2024-03-29T09:11:50;2.03;;;0.70;;
72235;SDS011;60146;52.498;13.462;2024-03-29T09:14:16;2.73;;;0.77;;
72235;SDS011;60146;52.498;13.462;2024-03-29T09:16:41;1.40;;;0.70;;
72235;SDS011;60146;52.498;13.462;2024-03-29T09:19:09;3.07;;;0.60;;
72235;SDS011;60146;52.498;13.462;2024-03-29T09:21:34;1.63;;;0.60;;
72235;SDS011;60146;52.498;13.462;2024-03-29T09:24:00;4.47;;;0.80;;
72235;SDS011;60146;52.498;13.462;2024-03-29T09:26:25;1.20;;;0.60;;
72235;SDS011;60146;52.498;13.462;2024-03-29T09:28:50;1.10;;;0.50;;
72235;SDS011;60146;52.498;13.462;2024-03-29T09:31:16;2.33;;;0.70;;
72235;SDS011;60146;52.498;13.462;2024-03-29T09:33:41;2.50;;;0.60;;
72235;SDS011;60146;52.498;13.462;2024-03-29T09:36:07;2.47;;;0.63;;
72235;SDS011;60146;52.498;13.462;2024-03-29T09:38:35;2.53;;;0.70;;
72235;SDS011;60146;52.498;13.462;2024-03-29T09:41:10;3.87;;;1.47;;
72235;SDS011;60146;52.498;13.462;2024-03-29T09:43:40;1.87;;;0.70;;
72235;SDS011;60146;52.498;13.462;2024-03-29T09:46:07;1.77;;;0.60;;
72235;SDS011;60146;52.498;13.462;2024-03-29T09:48:33;2.93;;;0.50;;
72235;SDS011;60146;52.498;13.462;2024-03-29T09:51:04;2.15;;;0.60;;
72235;SDS011;60146;52.498;13.462;2024-03-29T09:53:32;1.70;;;0.50;;
72235;SDS011;60146;52.498;13.462;2024-03-29T09:56:01;1.95;;;0.93;;
72235;SDS011;60146;52.498;13.462;2024-03-29T09:58:33;1.45;;;0.77;;
72235;SDS011;60146;52.498;13.462;2024-03-29T10:01:00;5.25;;;1.75;;
72235;SDS011;60146;52.498;13.462;2024-03-29T10:03:28;1.73;;;0.60;;
72235;SDS011;60146;52.498;13.462;2024-03-29T10:05:58;2.87;;;0.87;;
72235;SDS011;60146;52.498;13.462;2024-03-29T10:08:28;3.53;;;0.90;;
72235;SDS011;60146;52.498;13.462;2024-03-29T10:10:57;2.83;;;0.80;;
72235;SDS011;60146;52.498;13.462;2024-03-29T10:13:23;3.40;;;1.00;;
72235;SDS011;60146;52.498;13.462;2024-03-29T10:15:49;2.20;;;0.70;;
72235;SDS011;60146;52.498;13.462;2024-03-29T10:18:15;3.17;;;0.90;;
72235;SDS011;60146;52.498;13.462;2024-03-29T10:20:42;1.40;;;0.70;;
72235;SDS011;60146;52.498;13.462;2024-03-29T10:23:08;2.27;;;0.80;;
72235;SDS011;60146;52.498;13.462;2024-03-29T10:25:34;2.20;;;0.80;;
72235;SDS011;60146;52.498;13.462;2024-03-29T10:27:59;1.83;;;0.60;;
72235;SDS011;60146;52.498;13.462;2024-03-29T10:30:28;2.20;;;0.60;;
72235;SDS011;60146;52.498;13.462;2024-03-29T10:32:57;2.80;;;0.60;;
72235;SDS011;60146;52.498;13.462;2024-03-29T10:35:26;0.80;;;0.60;;
72235;SDS011;60146;52.498;13.462;2024-03-29T10:37:52;1.40;;;0.50;;
72235;SDS011;60146;52.498;13.462;2024-03-29T10:40:18;2.20;;;0.63;;
72235;SDS011;60146;52.498;13.462;2024-03-29T10:42:46;0.63;;;0.40;;
72235;SDS011;60146;52.498;13.462;2024-03-29T10:45:13;1.17;;;0.80;;
72235;SDS011;60146;52.498;13.462;2024-03-29T10:47:39;3.47;;;0.80;;
72235;SDS011;60146;52.498;13.462;2024-03-29T10:50:09;1.60;;;0.60;;
72235;SDS011;60146;52.498;13.462;2024-03-29T10:52:36;1.73;;;0.60;;
72235;SDS011;60146;52.498;13.462;2024-03-29T10:55:04;1.80;;;0.70;;
72235;SDS011;60146;52.498;13.462;2024-03-29T10:57:32;1.33;;;0.80;;
72235;SDS011;60146;52.498;13.462;2024-03-29T11:00:03;4.68;;;0.77;;
72235;SDS011;60146;52.498;13.462;2024-03-29T11:02:35;1.87;;;0.80;;
72235;SDS011;60146;52.498;13.462;2024-03-29T11:05:09;1.03;;;0.50;;
72235;SDS011;60146;52.498;13.462;2024-03-29T11:07:38;1.80;;;0.70;;
72235;SDS011;60146;52.498;13.462;2024-03-29T11:10:06;2.43;;;0.80;;
72235;SDS011;60146;52.498;13.462;2024-03-29T11:12:39;2.08;;;0.52;;
72235;SDS011;60146;52.498;13.462;2024-03-29T11:15:12;0.87;;;0.50;;
72235;SDS011;60146;52.498;13.462;2024-03-29T11:17:45;2.70;;;0.50;;
72235;SDS011;60146;52.498;13.462;2024-03-29T11:20:10;0.80;;;0.67;;
72235;SDS011;60146;52.498;13.462;2024-03-29T11:22:40;1.33;;;0.50;;
72235;SDS011;60146;52.498;13.462;2024-03-29T11:25:05;0.70;;;0.50;;
72235;SDS011;60146;52.498;13.462;2024-03-29T11:27:32;1.33;;;0.37;;
72235;SDS011;60146;52.498;13.462;2024-03-29T11:29:58;1.70;;;0.67;;
72235;SDS011;60146;52.498;13.462;2024-03-29T11:32:36;0.70;;;0.30;;
72235;SDS011;60146;52.498;13.462;2024-03-29T11:35:03;0.57;;;0.47;;
72235;SDS011;60146;52.498;13.462;2024-03-29T11:37:30;1.30;;;0.50;;
72235;SDS011;60146;52.498;13.462;2024-03-29T11:39:59;2.72;;;0.40;;
72235;SDS011;60146;52.498;13.462;2024-03-29T11:42:43;4.70;;;0.50;;
72235;SDS011;60146;52.498;13.462;2024-03-29T11:45:10;0.50;;;0.27;;
72235;SDS011;60146;52.498;13.462;2024-03-29T11:47:37;1.77;;;0.50;;
72235;SDS011;60146;52.498;13.462;2024-03-29T11:50:04;1.30;;;0.47;;
72235;SDS011;60146;52.498;13.462;2024-03-29T11:52:31;1.20;;;0.60;;
72235;SDS011;60146;52.498;13.462;2024-03-29T11:54:56;0.67;;;0.33;;
72235;SDS011;60146;52.498;13.462;2024-03-29T11:57:21;1.23;;;0.43;;
72235;SDS011;60146;52.498;13.462;2024-03-29T11:59:47;1.97;;;0.70;;
72235;SDS011;60146;52.498;13.462;2024-03-29T12:02:12;0.80;;;0.50;;
72235;SDS011;60146;52.498;13.462;2024-03-29T12:04:40;0.47;;;0.40;;
72235;SDS011;60146;52.498;13.462;2024-03-29T12:07:06;2.83;;;0.53;;
72235;SDS011;60146;52.498;13.462;2024-03-29T12:09:31;1.30;;;0.50;;
72235;SDS011;60146;52.498;13.462;2024-03-29T12:11:57;1.20;;;0.40;;
72235;SDS011;60146;52.498;13.462;2024-03-29T12:14:24;1.10;;;0.40;;
72235;SDS011;60146;52.498;13.462;2024-03-29T12:16:52;1.90;;;0.63;;
72235;SDS011;60146;52.498;13.462;2024-03-29T12:19:22;0.77;;;0.50;;
72235;SDS011;60146;52.498;13.462;2024-03-29T12:21:48;0.98;;;0.60;;
72235;SDS011;60146;52.498;13.462;2024-03-29T12:24:15;1.80;;;0.37;;
72235;SDS011;60146;52.498;13.462;2024-03-29T12:26:41;2.10;;;0.70;;
72235;SDS011;60146;52.498;13.462;2024-03-29T12:29:06;1.47;;;0.60;;
72235;SDS011;60146;52.498;13.462;2024-03-29T12:31:32;2.57;;;0.70;;
72235;SDS011;60146;52.498;13.462;2024-03-29T12:33:57;0.97;;;0.60;;
72235;SDS011;60146;52.498;13.462;2024-03-29T12:36:24;2.00;;;0.70;;
72235;SDS011;60146;52.498;13.462;2024-03-29T12:38:53;0.50;;;0.50;;
72235;SDS011;60146;52.498;13.462;2024-03-29T12:41:22;1.27;;;0.57;;
72235;SDS011;60146;52.498;13.462;2024-03-29T12:43:50;1.70;;;0.70;;
72235;SDS011;60146;52.498;13.462;2024-03-29T12:46:16;0.87;;;0.33;;
72235;SDS011;60146;52.498;13.462;2024-03-29T12:48:43;1.03;;;0.50;;
72235;SDS011;60146;52.498;13.462;2024-03-29T12:51:08;1.63;;;0.53;;
72235;SDS011;60146;52.498;13.462;2024-03-29T12:53:33;1.67;;;0.50;;
72235;SDS011;60146;52.498;13.462;2024-03-29T12:55:59;1.30;;;0.57;;
72235;SDS011;60146;52.498;13.462;2024-03-29T12:58:24;1.58;;;0.50;;
72235;SDS011;60146;52.498;13.462;2024-03-29T13:00:50;4.57;;;1.13;;
72235;SDS011;60146;52.498;13.462;2024-03-29T13:03:15;1.17;;;0.60;;
72235;SDS011;60146;52.498;13.462;2024-03-29T13:05:41;2.05;;;0.60;;
72235;SDS011;60146;52.498;13.462;2024-03-29T13:08:07;1.35;;;0.70;;
72235;SDS011;60146;52.498;13.462;2024-03-29T13:10:35;1.77;;;0.50;;
72235;SDS011;60146;52.498;13.462;2024-03-29T13:13:00;1.15;;;0.55;;
72235;SDS011;60146;52.498;13.462;2024-03-29T13:15:26;1.52;;;0.50;;
72235;SDS011;60146;52.498;13.462;2024-03-29T13:17:52;1.10;;;0.60;;
72235;SDS011;60146;52.498;13.462;2024-03-29T13:20:19;2.10;;;0.50;;
72235;SDS011;60146;52.498;13.462;2024-03-29T13:22:45;3.70;;;0.60;;
72235;SDS011;60146;52.498;13.462;2024-03-29T13:25:12;1.80;;;0.63;;
72235;SDS011;60146;52.498;13.462;2024-03-29T13:27:38;1.23;;;0.87;;
72235;SDS011;60146;52.498;13.462;2024-03-29T13:30:07;1.00;;;0.53;;
72235;SDS011;60146;52.498;13.462;2024-03-29T13:32:40;0.98;;;0.70;;
72235;SDS011;60146;52.498;13.462;2024-03-29T13:35:06;1.53;;;0.70;;
72235;SDS011;60146;52.498;13.462;2024-03-29T13:37:41;5.83;;;0.50;;
72235;SDS011;60146;52.498;13.462;2024-03-29T13:40:08;4.27;;;0.73;;
72235;SDS011;60146;52.498;13.462;2024-03-29T13:42:35;1.53;;;0.57;;
72235;SDS011;60146;52.498;13.462;2024-03-29T13:45:01;1.20;;;0.47;;
72235;SDS011;60146;52.498;13.462;2024-03-29T13:47:27;2.73;;;0.80;;
72235;SDS011;60146;52.498;13.462;2024-03-29T13:49:52;1.77;;;0.63;;
72235;SDS011;60146;52.498;13.462;2024-03-29T13:52:19;1.83;;;0.70;;
72235;SDS011;60146;52.498;13.462;2024-03-29T13:54:45;1.10;;;0.50;;
72235;SDS011;60146;52.498;13.462;2024-03-29T13:57:15;2.10;;;0.60;;
72235;SDS011;60146;52.498;13.462;2024-03-29T13:59:41;1.60;;;0.53;;
72235;SDS011;60146;52.498;13.462;2024-03-29T14:02:08;2.55;;;0.57;;
72235;SDS011;60146;52.498;13.462;2024-03-29T14:04:35;1.55;;;0.55;;
72235;SDS011;60146;52.498;13.462;2024-03-29T14:07:00;0.67;;;0.50;;
72235;SDS011;60146;52.498;13.462;2024-03-29T14:09:27;2.17;;;0.75;;
72235;SDS011;60146;52.498;13.462;2024-03-29T14:11:52;2.95;;;0.60;;
72235;SDS011;60146;52.498;13.462;2024-03-29T14:14:17;1.95;;;0.60;;
72235;SDS011;60146;52.498;13.462;2024-03-29T14:16:43;1.13;;;0.63;;
72235;SDS011;60146;52.498;13.462;2024-03-29T14:19:08;0.60;;;0.40;;
72235;SDS011;60146;52.498;13.462;2024-03-29T14:21:33;0.77;;;0.40;;
72235;SDS011;60146;52.498;13.462;2024-03-29T14:23:59;1.20;;;0.52;;
72235;SDS011;60146;52.498;13.462;2024-03-29T14:26:24;1.42;;;0.50;;
72235;SDS011;60146;52.498;13.462;2024-03-29T14:28:50;1.25;;;0.57;;
72235;SDS011;60146;52.498;13.462;2024-03-29T14:31:15;0.52;;;0.40;;